createdAt,value
2023-05-08T00:01:21.174Z,91.80
2023-05-08T00:03:49.350Z,91.90
2023-05-08T00:06:17.471Z,91.90
2023-05-08T00:08:45.617Z,91.90
2023-05-08T00:11:15.158Z,92.00
2023-05-08T00:13:43.122Z,92.00
2023-05-08T00:16:11.824Z,92.10
2023-05-08T00:18:40.428Z,92.10
2023-05-08T00:21:08.794Z,92.10
2023-05-08T00:23:38.105Z,92.10
2023-05-08T00:26:06.674Z,92.10
2023-05-08T00:28:36.204Z,92.10
2023-05-08T00:31:04.589Z,92.10
2023-05-08T00:33:32.633Z,92.20
2023-05-08T00:36:01.559Z,92.40
2023-05-08T00:38:31.582Z,92.50
2023-05-08T00:40:59.729Z,92.90
2023-05-08T00:43:28.468Z,92.60
2023-05-08T00:45:59.836Z,92.70
2023-05-08T00:48:31.640Z,92.70
2023-05-08T00:51:00.204Z,92.70
2023-05-08T00:53:29.470Z,92.70
2023-05-08T00:55:57.655Z,92.70
2023-05-08T00:58:27.857Z,92.70
2023-05-08T01:00:59.567Z,92.80
2023-05-08T01:03:29.166Z,92.70
2023-05-08T01:05:57.685Z,92.80
2023-05-08T01:08:26.494Z,92.70
2023-05-08T01:11:04.024Z,92.70
2023-05-08T01:13:41.760Z,93.10
2023-05-08T01:16:17.163Z,92.80
2023-05-08T01:18:52.272Z,92.80
2023-05-08T01:21:32.483Z,92.70
2023-05-08T01:24:28.898Z,92.80
2023-05-08T01:27:34.557Z,92.80
2023-05-08T01:30:53.994Z,92.70
2023-05-08T01:33:30.650Z,92.80
2023-05-08T01:36:07.771Z,92.90
2023-05-08T01:38:44.202Z,93.00
2023-05-08T01:41:17.291Z,93.10
2023-05-08T01:43:51.576Z,93.20
2023-05-08T01:46:23.738Z,93.20
2023-05-08T01:49:01.553Z,93.20
2023-05-08T01:51:32.329Z,93.20
2023-05-08T01:54:04.368Z,93.30
2023-05-08T01:56:33.968Z,93.30
2023-05-08T01:59:03.698Z,93.40
2023-05-08T02:01:34.901Z,93.30
2023-05-08T02:04:07.915Z,93.30
2023-05-08T02:06:37.217Z,93.30
2023-05-08T02:09:08.369Z,93.30
2023-05-08T02:11:38.708Z,93.40
2023-05-08T02:14:09.603Z,93.50
2023-05-08T02:16:40.097Z,93.50
2023-05-08T02:19:11.678Z,93.50
2023-05-08T02:21:41.299Z,93.50
2023-05-08T02:24:10.110Z,93.60
2023-05-08T02:26:39.606Z,93.60
2023-05-08T02:29:09.198Z,93.70
2023-05-08T02:31:38.378Z,93.70
2023-05-08T02:34:07.588Z,93.40
2023-05-08T02:36:38.301Z,93.70
2023-05-08T02:39:08.802Z,93.90
2023-05-08T02:41:38.932Z,93.80
2023-05-08T02:44:07.616Z,93.80
2023-05-08T02:46:45.698Z,93.90
2023-05-08T02:49:24.061Z,93.90
2023-05-08T02:51:58.916Z,93.90
2023-05-08T02:54:35.800Z,93.90
2023-05-08T02:57:11.740Z,94.30
2023-05-08T02:59:44.045Z,94.00
2023-05-08T03:02:16.542Z,93.90
2023-05-08T03:04:50.973Z,94.00
2023-05-08T03:07:21.981Z,94.10
2023-05-08T03:09:56.460Z,94.10
2023-05-08T03:12:29.081Z,94.10
2023-05-08T03:15:03.976Z,94.20
2023-05-08T03:17:35.317Z,94.20
2023-05-08T03:20:07.802Z,94.30
2023-05-08T03:22:39.028Z,94.40
2023-05-08T03:25:10.614Z,94.50
2023-05-08T03:27:39.625Z,94.60
2023-05-08T03:30:10.766Z,94.70
2023-05-08T03:32:40.297Z,94.70
2023-05-08T03:35:09.986Z,94.70
2023-05-08T03:37:39.685Z,94.80
2023-05-08T03:40:09.350Z,94.90
2023-05-08T03:42:38.526Z,95.10
2023-05-08T03:45:10.895Z,95.10
2023-05-08T03:47:40.861Z,95.10
2023-05-08T03:50:10.702Z,95.20
2023-05-08T03:52:40.610Z,95.30
2023-05-08T03:55:09.748Z,95.40
2023-05-08T03:57:43.743Z,95.40
2023-05-08T04:00:20.751Z,95.60
2023-05-08T04:02:54.432Z,95.70
2023-05-08T04:05:26.985Z,95.80
2023-05-08T04:08:00.384Z,96.00
2023-05-08T04:10:32.976Z,96.10
2023-05-08T04:13:06.508Z,96.20
2023-05-08T04:15:37.692Z,96.40
2023-05-08T04:18:08.102Z,96.60
2023-05-08T04:20:36.789Z,96.80
2023-05-08T04:23:08.057Z,97.00
2023-05-08T04:25:38.901Z,97.30
2023-05-08T04:28:07.460Z,97.50
2023-05-08T04:30:35.884Z,97.60
2023-05-08T04:33:05.093Z,97.90
2023-05-08T04:35:34.955Z,98.20
2023-05-08T04:38:04.938Z,98.50
2023-05-08T04:40:32.948Z,98.70
2023-05-08T04:43:01.085Z,98.90
2023-05-08T04:45:29.368Z,99.20
2023-05-08T04:47:57.409Z,99.50
2023-05-08T04:50:25.649Z,99.80
2023-05-08T04:52:53.639Z,99.90
2023-05-08T04:55:23.463Z,99.90
2023-05-08T04:57:51.609Z,99.90
2023-05-08T05:00:20.623Z,99.90
2023-05-08T05:02:48.711Z,99.90
2023-05-08T05:05:17.090Z,99.90
2023-05-08T05:07:45.086Z,99.90
2023-05-08T05:10:13.117Z,99.90
2023-05-08T05:12:43.235Z,99.90
2023-05-08T05:15:12.649Z,99.90
2023-05-08T05:17:41.117Z,99.90
2023-05-08T05:20:10.317Z,99.90
2023-05-08T05:22:38.341Z,99.90
2023-05-08T05:25:07.218Z,99.90
2023-05-08T05:27:36.656Z,99.90
2023-05-08T05:30:07.223Z,99.90
2023-05-08T05:32:35.475Z,99.90
2023-05-08T05:35:03.582Z,99.90
2023-05-08T05:37:31.882Z,99.90
2023-05-08T05:39:59.859Z,99.90
2023-05-08T05:42:27.872Z,99.90
2023-05-08T05:44:57.105Z,99.90
2023-05-08T05:47:26.873Z,99.90
2023-05-08T05:49:54.831Z,99.90
2023-05-08T05:52:22.827Z,99.90
2023-05-08T05:54:50.828Z,99.90
2023-05-08T05:57:18.833Z,99.90
2023-05-08T05:59:46.768Z,99.90
2023-05-08T06:02:18.958Z,99.90
2023-05-08T06:04:50.080Z,99.90
2023-05-08T06:07:18.086Z,99.90
2023-05-08T06:09:46.809Z,99.90
2023-05-08T06:12:14.811Z,99.90
2023-05-08T06:14:43.119Z,99.90
2023-05-08T06:17:11.566Z,99.90
2023-05-08T06:19:39.581Z,99.90
2023-05-08T06:22:08.937Z,99.90
2023-05-08T06:24:37.116Z,99.90
2023-05-08T06:27:05.542Z,99.90
2023-05-08T06:29:33.683Z,99.90
2023-05-08T06:32:01.764Z,99.90
2023-05-08T06:34:29.852Z,99.90
2023-05-08T06:36:57.834Z,99.90
2023-05-08T06:39:27.189Z,99.90
2023-05-08T06:41:55.137Z,99.90
2023-05-08T06:44:23.177Z,99.90
2023-05-08T06:46:57.868Z,99.90
2023-05-08T06:49:36.245Z,99.90
2023-05-08T06:52:11.413Z,99.90
2023-05-08T06:54:44.530Z,99.90
2023-05-08T06:57:13.876Z,99.90
2023-05-08T06:59:41.918Z,99.90
2023-05-08T07:02:10.146Z,99.90
2023-05-08T07:04:38.422Z,99.90
2023-05-08T07:07:06.973Z,99.90
2023-05-08T07:09:34.901Z,99.90
2023-05-08T07:12:04.367Z,99.90
2023-05-08T07:14:32.293Z,99.90
2023-05-08T07:17:06.797Z,99.90
2023-05-08T07:19:36.426Z,99.90
2023-05-08T07:22:04.964Z,99.90
2023-05-08T07:24:33.327Z,99.90
2023-05-08T07:27:01.393Z,99.90
2023-05-08T07:29:31.051Z,99.90
2023-05-08T07:31:59.154Z,99.90
2023-05-08T07:34:27.651Z,99.90
2023-05-08T07:36:55.714Z,99.90
2023-05-08T07:39:23.703Z,99.90
2023-05-08T07:41:51.768Z,99.90
2023-05-08T07:44:19.850Z,99.90
2023-05-08T07:46:49.197Z,99.90
2023-05-08T07:49:17.214Z,99.90
2023-05-08T07:51:45.364Z,99.90
2023-05-08T07:54:13.376Z,99.90
2023-05-08T07:56:41.344Z,99.90
2023-05-08T07:59:09.302Z,99.90
2023-05-08T08:01:37.258Z,99.90
2023-05-08T08:04:07.626Z,99.90
2023-05-08T08:06:35.677Z,99.90
2023-05-08T08:09:04.001Z,99.90
2023-05-08T08:11:32.025Z,99.90
2023-05-08T08:13:59.947Z,99.90
2023-05-08T08:16:28.042Z,99.90
2023-05-08T08:18:56.063Z,99.90
2023-05-08T08:21:25.413Z,99.90
2023-05-08T08:23:53.382Z,99.90
2023-05-08T08:26:21.962Z,99.90
2023-05-08T08:28:50.018Z,99.90
2023-05-08T08:31:19.817Z,99.90
2023-05-08T08:33:47.805Z,99.90
2023-05-08T08:36:16.163Z,99.90
2023-05-08T08:38:45.784Z,99.90
2023-05-08T08:41:15.702Z,99.90
2023-05-08T08:43:44.247Z,99.90
2023-05-08T08:46:15.257Z,99.90
2023-05-08T08:48:46.184Z,99.90
2023-05-08T08:51:19.940Z,99.90
2023-05-08T08:53:53.740Z,99.90
2023-05-08T08:56:24.582Z,99.90
2023-05-08T08:58:59.179Z,99.90
2023-05-08T09:01:29.390Z,99.90
2023-05-08T09:03:59.670Z,99.90
2023-05-08T09:06:28.912Z,99.80
2023-05-08T09:08:58.458Z,99.10
2023-05-08T09:11:26.540Z,98.70
2023-05-08T09:13:56.076Z,98.70
2023-05-08T09:16:24.977Z,98.60
2023-05-08T09:18:53.089Z,98.40
2023-05-08T09:21:22.859Z,98.00
2023-05-08T09:23:59.543Z,97.60
2023-05-08T09:26:29.345Z,97.40
2023-05-08T09:29:10.174Z,97.20
2023-05-08T09:31:39.886Z,97.10
2023-05-08T09:34:08.925Z,97.10
2023-05-08T09:36:37.063Z,96.80
2023-05-08T09:39:11.378Z,96.40
2023-05-08T09:41:39.617Z,95.90
2023-05-08T09:44:08.282Z,95.60
2023-05-08T09:46:36.537Z,95.40
2023-05-08T09:49:05.394Z,95.20
2023-05-08T09:51:33.580Z,95.00
2023-05-08T09:54:05.767Z,94.70
2023-05-08T09:56:39.948Z,94.30
2023-05-08T09:59:24.569Z,93.80
2023-05-08T10:01:52.657Z,93.40
2023-05-08T10:04:32.714Z,93.20
2023-05-08T10:07:01.217Z,92.80
2023-05-08T10:09:42.630Z,92.70
2023-05-08T10:12:16.916Z,92.40
2023-05-08T10:14:46.834Z,91.80
2023-05-08T10:17:17.144Z,91.60
2023-05-08T10:19:49.461Z,91.50
2023-05-08T10:22:19.178Z,91.20
2023-05-08T10:24:49.755Z,90.70
2023-05-08T10:27:28.033Z,90.10
2023-05-08T10:30:02.046Z,90.30
2023-05-08T10:32:32.500Z,90.20
2023-05-08T10:35:01.654Z,90.00
2023-05-08T10:37:31.316Z,89.10
2023-05-08T10:39:59.611Z,88.20
2023-05-08T10:42:30.025Z,87.60
2023-05-08T10:44:58.508Z,87.40
2023-05-08T10:47:34.675Z,86.90
2023-05-08T10:50:11.172Z,86.00
2023-05-08T10:52:45.902Z,85.40
2023-05-08T10:55:26.758Z,85.00
2023-05-08T10:58:12.938Z,84.40
2023-05-08T11:01:13.117Z,83.20
2023-05-08T11:03:43.256Z,80.60
2023-05-08T11:06:11.958Z,79.20
2023-05-08T11:08:51.213Z,78.50
2023-05-08T11:11:28.652Z,76.90
2023-05-08T11:14:10.555Z,75.30
2023-05-08T11:17:06.976Z,73.60
2023-05-08T11:19:36.140Z,71.90
2023-05-08T11:22:14.784Z,70.80
2023-05-08T11:24:49.033Z,69.50
2023-05-08T11:27:17.216Z,68.60
2023-05-08T11:29:46.551Z,66.60
2023-05-08T11:37:18.649Z,64.00
2023-05-08T11:39:46.688Z,63.50
2023-05-08T11:42:35.156Z,62.20
2023-05-08T11:45:07.074Z,60.10
2023-05-08T11:47:39.852Z,59.30
2023-05-08T11:50:09.686Z,59.00
2023-05-08T11:52:40.376Z,58.60
2023-05-08T11:55:10.552Z,58.40
2023-05-08T11:57:38.924Z,58.00
2023-05-08T12:00:08.144Z,57.20
2023-05-08T12:02:37.723Z,56.70
2023-05-08T12:05:06.800Z,56.80
2023-05-08T12:07:35.124Z,57.00
2023-05-08T12:10:04.548Z,56.10
2023-05-08T12:12:39.076Z,55.50
2023-05-08T12:15:08.874Z,54.70
2023-05-08T12:17:38.219Z,53.50
2023-05-08T12:20:14.545Z,52.80
2023-05-08T12:22:43.790Z,52.60
2023-05-08T12:25:15.660Z,52.30
2023-05-08T12:27:44.904Z,52.20
2023-05-08T12:30:15.507Z,52.30
2023-05-08T12:32:44.931Z,52.20
2023-05-08T12:35:14.213Z,51.90
2023-05-08T12:37:42.453Z,51.40
2023-05-08T12:40:27.796Z,50.80
2023-05-08T12:42:56.130Z,49.90
2023-05-08T12:45:26.903Z,49.90
2023-05-08T12:48:00.421Z,49.70
2023-05-08T12:50:30.555Z,49.40
2023-05-08T12:53:04.520Z,49.60
2023-05-08T12:55:36.186Z,50.10
2023-05-08T12:58:06.061Z,49.90
2023-05-08T13:00:41.672Z,49.70
2023-05-08T13:03:11.451Z,49.30
2023-05-08T13:05:43.937Z,48.90
2023-05-08T13:08:12.561Z,47.90
2023-05-08T13:10:49.946Z,47.40
2023-05-08T13:13:20.120Z,46.80
2023-05-08T13:15:48.494Z,46.30
2023-05-08T13:18:17.089Z,45.40
2023-05-08T13:20:46.169Z,44.30
2023-05-08T13:23:14.447Z,44.00
2023-05-08T13:25:42.655Z,43.80
2023-05-08T13:28:12.019Z,43.60
2023-05-08T13:30:40.227Z,43.00
2023-05-08T13:33:08.862Z,43.00
2023-05-08T13:35:37.155Z,42.20
2023-05-08T13:38:06.108Z,42.00
2023-05-08T13:40:34.229Z,41.60
2023-05-08T13:43:02.315Z,41.80
2023-05-08T13:45:33.041Z,42.00
2023-05-08T13:48:01.287Z,41.80
2023-05-08T13:50:29.433Z,41.10
2023-05-08T13:52:57.374Z,39.60
2023-05-08T13:55:25.679Z,39.60
2023-05-08T13:57:53.629Z,39.80
2023-05-08T14:00:21.800Z,39.90
2023-05-08T14:02:53.150Z,40.20
2023-05-08T14:05:21.523Z,40.20
2023-05-08T14:07:49.551Z,40.10
2023-05-08T14:10:18.073Z,40.10
2023-05-08T14:12:46.809Z,39.90
2023-05-08T14:15:15.889Z,39.60
2023-05-08T14:17:44.250Z,39.10
2023-05-08T14:20:13.839Z,38.90
2023-05-08T14:22:41.851Z,38.90
2023-05-08T14:25:11.119Z,38.60
2023-05-08T14:27:39.189Z,38.30
2023-05-08T14:30:08.665Z,38.30
2023-05-08T14:32:36.738Z,38.80
2023-05-08T14:35:05.027Z,39.00
2023-05-08T14:37:34.355Z,39.10
2023-05-08T14:40:02.488Z,39.10
2023-05-08T14:42:30.528Z,38.90
2023-05-08T14:44:58.509Z,39.00
2023-05-08T14:47:27.060Z,39.00
2023-05-08T14:49:55.125Z,39.20
2023-05-08T14:52:23.249Z,39.30
2023-05-08T14:54:53.737Z,38.80
2023-05-08T14:57:22.113Z,38.90
2023-05-08T15:02:38.060Z,39.60
2023-05-08T15:05:10.974Z,39.70
2023-05-08T15:07:45.422Z,39.50
2023-05-08T15:10:14.831Z,39.30
2023-05-08T15:12:42.750Z,39.40
2023-05-08T15:15:11.740Z,39.40
2023-05-08T15:17:41.535Z,39.50
2023-05-08T15:20:10.769Z,39.00
2023-05-08T15:22:38.789Z,38.70
2023-05-08T15:25:08.387Z,38.60
2023-05-08T15:27:37.711Z,38.30
2023-05-08T15:30:06.632Z,38.10
2023-05-08T15:32:34.976Z,37.90
2023-05-08T15:35:03.515Z,37.80
2023-05-08T15:37:31.488Z,37.70
2023-05-08T15:39:59.460Z,38.10
2023-05-08T15:42:27.488Z,38.60
2023-05-08T15:44:58.527Z,38.70
2023-05-08T15:47:27.818Z,38.70
2023-05-08T15:49:55.971Z,38.60
2023-05-08T15:52:24.026Z,38.10
2023-05-08T15:54:52.117Z,37.90
2023-05-08T15:57:20.180Z,38.50
2023-05-08T15:59:48.095Z,37.80
2023-05-08T16:02:17.523Z,38.20
2023-05-08T16:04:45.558Z,38.60
2023-05-08T16:07:13.764Z,38.90
2023-05-08T16:09:42.250Z,39.10
2023-05-08T16:12:11.080Z,39.40
2023-05-08T16:14:39.220Z,39.50
2023-05-08T16:17:08.641Z,39.60
2023-05-08T16:19:40.530Z,39.80
2023-05-08T16:22:08.488Z,40.20
2023-05-08T16:24:36.481Z,40.10
2023-05-08T16:27:04.925Z,40.00
2023-05-08T16:29:32.865Z,39.70
2023-05-08T16:32:00.918Z,39.80
2023-05-08T16:34:29.035Z,39.90
2023-05-08T16:36:59.325Z,40.00
2023-05-08T16:39:27.431Z,40.00
2023-05-08T16:41:55.505Z,40.00
2023-05-08T16:44:23.485Z,39.90
2023-05-08T16:46:51.539Z,39.80
2023-05-08T16:49:19.733Z,39.70
2023-05-08T16:51:47.958Z,39.80
2023-05-08T16:54:17.364Z,39.90
2023-05-08T16:56:45.429Z,39.90
2023-05-08T16:59:13.683Z,39.90
2023-05-08T17:01:41.781Z,39.90
2023-05-08T17:04:10.012Z,39.90
2023-05-08T17:06:39.968Z,40.00
2023-05-08T17:09:08.089Z,39.90
2023-05-08T17:11:37.440Z,40.10
2023-05-08T17:14:05.508Z,40.40
2023-05-08T17:16:33.529Z,40.80
2023-05-08T17:19:01.801Z,41.20
2023-05-08T17:21:31.064Z,41.40
2023-05-08T17:24:00.424Z,41.60
2023-05-08T17:26:28.912Z,42.00
2023-05-08T17:28:58.403Z,42.10
2023-05-08T17:31:26.742Z,42.40
2023-05-08T17:33:54.970Z,42.70
2023-05-08T17:36:23.160Z,43.00
2023-05-08T17:38:52.010Z,43.20
2023-05-08T17:41:20.351Z,43.30
2023-05-08T17:43:48.307Z,43.60
2023-05-08T17:46:17.671Z,43.80
2023-05-08T17:48:45.698Z,44.00
2023-05-08T17:51:14.209Z,44.30
2023-05-08T17:53:42.481Z,44.60
2023-05-08T17:56:11.090Z,45.00
2023-05-08T17:58:39.497Z,45.40
2023-05-08T18:01:08.200Z,45.70
2023-05-08T18:03:37.586Z,46.00
2023-05-08T18:06:05.982Z,46.30
2023-05-08T18:08:35.514Z,46.60
2023-05-08T18:11:03.530Z,46.90
2023-05-08T18:13:32.991Z,47.00
2023-05-08T18:16:01.237Z,47.30
2023-05-08T18:18:30.107Z,47.50
2023-05-08T18:20:59.656Z,47.70
2023-05-08T18:23:27.818Z,48.00
2023-05-08T18:25:56.313Z,48.10
2023-05-08T18:28:24.444Z,48.40
2023-05-08T18:30:52.685Z,48.70
2023-05-08T18:33:20.723Z,49.00
2023-05-08T18:35:48.790Z,49.40
2023-05-08T18:38:18.726Z,50.00
2023-05-08T18:40:47.854Z,50.90
2023-05-08T18:43:15.874Z,51.50
2023-05-08T18:45:43.840Z,51.90
2023-05-08T18:48:12.316Z,52.40
2023-05-08T18:50:40.367Z,52.70
2023-05-08T18:53:09.813Z,53.00
2023-05-08T18:55:39.763Z,53.30
2023-05-08T18:58:07.759Z,53.60
2023-05-08T19:00:35.992Z,54.20
2023-05-08T19:03:04.070Z,54.80
2023-05-08T19:05:32.104Z,55.30
2023-05-08T19:08:00.497Z,55.70
2023-05-08T19:10:28.626Z,56.20
2023-05-08T19:12:58.570Z,56.70
2023-05-08T19:15:27.415Z,57.50
2023-05-08T19:17:55.629Z,58.10
2023-05-08T19:20:24.055Z,58.50
2023-05-08T19:22:52.051Z,59.00
2023-05-08T19:25:20.282Z,59.50
2023-05-08T19:27:48.357Z,60.10
2023-05-08T19:30:17.923Z,60.50
2023-05-08T19:32:45.929Z,61.00
2023-05-08T19:35:13.997Z,61.30
2023-05-08T19:37:42.068Z,62.00
2023-05-08T19:40:11.634Z,62.50
2023-05-08T19:42:39.780Z,62.90
2023-05-08T19:45:08.818Z,63.40
2023-05-08T19:47:38.234Z,64.00
2023-05-08T19:50:07.480Z,64.50
2023-05-08T19:52:35.944Z,64.80
2023-05-08T19:55:04.093Z,65.10
2023-05-08T19:57:32.371Z,65.50
2023-05-08T20:00:00.418Z,65.90
2023-05-08T20:02:28.480Z,66.20
2023-05-08T20:07:28.972Z,67.10
2023-05-08T20:09:57.066Z,67.50
2023-05-08T20:12:25.079Z,67.90
2023-05-08T20:14:53.520Z,68.50
2023-05-08T20:17:21.575Z,69.10
2023-05-08T20:19:49.741Z,69.70
2023-05-08T20:22:19.155Z,70.00
2023-05-08T20:24:47.111Z,70.50
2023-05-08T20:27:15.411Z,70.80
2023-05-08T20:29:45.481Z,71.20
2023-05-08T20:32:17.256Z,71.50
2023-05-08T20:34:45.257Z,71.80
2023-05-08T20:37:13.542Z,72.10
2023-05-08T20:39:42.950Z,72.20
2023-05-08T20:42:10.890Z,72.60
2023-05-08T20:44:38.999Z,72.80
2023-05-08T20:47:06.978Z,73.00
2023-05-08T20:49:35.026Z,73.20
2023-05-08T20:52:04.330Z,73.40
2023-05-08T20:54:32.819Z,73.80
2023-05-08T20:57:02.933Z,74.20
2023-05-08T20:59:31.071Z,75.20
2023-05-08T21:01:59.178Z,74.50
2023-05-08T21:04:27.538Z,74.70
2023-05-08T21:06:55.592Z,74.90
2023-05-08T21:09:23.575Z,75.00
2023-05-08T21:11:51.611Z,75.30
2023-05-08T21:14:21.110Z,75.50
2023-05-08T21:16:50.189Z,75.60
2023-05-08T21:19:18.316Z,75.70
2023-05-08T21:21:46.339Z,75.80
2023-05-08T21:24:14.693Z,76.00
2023-05-08T21:26:42.680Z,76.30
2023-05-08T21:29:11.316Z,76.50
2023-05-08T21:31:41.252Z,76.70
2023-05-08T21:34:10.986Z,76.90
2023-05-08T21:36:39.089Z,77.10
2023-05-08T21:39:07.275Z,77.40
2023-05-08T21:41:35.272Z,77.50
2023-05-08T21:44:03.416Z,77.70
2023-05-08T21:46:31.475Z,77.90
2023-05-08T21:49:01.044Z,78.00
2023-05-08T21:51:29.228Z,78.20
2023-05-08T21:53:57.208Z,78.30
2023-05-08T21:56:25.716Z,78.40
2023-05-08T21:58:53.781Z,78.50
2023-05-08T22:01:21.740Z,78.60
2023-05-08T22:03:49.923Z,78.80
2023-05-08T22:06:19.432Z,78.80
2023-05-08T22:08:47.683Z,79.00
2023-05-08T22:11:16.017Z,79.20
2023-05-08T22:13:44.020Z,79.40
2023-05-08T22:16:12.233Z,79.60
2023-05-08T22:18:40.738Z,79.80
2023-05-08T22:21:09.240Z,80.00
2023-05-08T22:23:38.882Z,80.10
2023-05-08T22:26:07.098Z,80.20
2023-05-08T22:28:35.117Z,80.30
2023-05-08T22:31:03.307Z,80.50
2023-05-08T22:33:34.019Z,80.60
2023-05-08T22:36:02.093Z,80.70
2023-05-08T22:38:30.119Z,80.90
2023-05-08T22:41:00.267Z,81.00
2023-05-08T22:43:28.553Z,81.00
2023-05-08T22:45:57.970Z,81.10
2023-05-08T22:48:26.307Z,81.20
2023-05-08T22:50:54.416Z,81.00
2023-05-08T22:53:22.581Z,81.00
2023-05-08T22:55:50.859Z,81.10
2023-05-08T22:58:20.198Z,81.10
2023-05-08T23:00:48.311Z,81.30
2023-05-08T23:03:16.571Z,81.60
2023-05-08T23:05:45.397Z,81.70
2023-05-08T23:08:13.635Z,81.80
2023-05-08T23:10:41.805Z,81.90
2023-05-08T23:13:09.804Z,81.80
2023-05-08T23:15:39.158Z,81.90
2023-05-08T23:18:07.584Z,81.90
2023-05-08T23:20:35.641Z,81.90
2023-05-08T23:23:03.821Z,82.20
2023-05-08T23:25:31.937Z,82.30
2023-05-08T23:28:00.147Z,83.40
2023-05-08T23:30:28.324Z,82.50
2023-05-08T23:32:57.693Z,82.70
2023-05-08T23:35:25.864Z,82.80
2023-05-08T23:37:53.867Z,82.90
2023-05-08T23:40:22.255Z,82.90
2023-05-08T23:42:52.157Z,83.00
2023-05-08T23:45:20.120Z,83.20
2023-05-08T23:47:49.374Z,83.20
2023-05-08T23:52:47.441Z,82.70
2023-05-08T23:55:15.941Z,83.40
2023-05-08T23:57:44.155Z,83.40
